Airfield :
LOGIN :

Register | Disclaimer

   EN    FR    IT 

 










Legend :    VFR   Marginal VFR   IFR   Intensive IFR   Very Intensive IFR
Visi :
Ceiling :
>= 8 km
>= 3000ft
5 to 8 km
1000 to 3000 ft
1500m to 5 km
500 to 1000 ft
800 to 1500m
200 to 500 ft
< 800m
< 200 ft
Symbols :   Thunderstorms  Fog  Heavy snow  Heavy precipitations  Wind > 20 kt
SIGMETs :     Misc.  Thunderstorms  Icing  Turbulence  Mountain Waves  Volcanic Ashes







- Airport Elevation : 25 ft
- IATA code : TPS


LICT - Vincenzo Florio Trapani

CURRENT METAR :
  • 200055Z 29020KT 9999 SCT022 22/11 Q1015 RMK SCT VIS MIN 9999 WIND THR13 29020KT BLU

EXPIRED METARs :
  • 192355Z 30017KT 9999 SCT022 22/11 Q1015
  • 192255Z 29023KT CAVOK 22/12 Q1016

TAF TAF LICT
Valid from the 20 at 00:00 until the 20 at 09:00 UTC


192300Z 2000/2009 31015G30KT 9999 SCT020
TEMPO 2006/2009 5000 SHRA FEW010CB BKN015
No reported NOTAMs for that airfield.
2 SIGMETs reported for the Roma FIR (LIRR) :
 
Severe turbulence
LIRR SIGMET 9 VALID 200000/200400 LIIB
LIRR ROMA FIR SEV TURB FCST WI N4139 E00945 - N4126 E01418 - N4111 E01509 - N3913 E01614 - N3740 E01440 - N3731 E01125 - N3859 E00800 - N4101 E00758 - N4121 E00819 - N4119 E00944 - N4139 E00945 FL190/360 MOV NE NC=
Embedded thunderstorms
LIRR SIGMET 8 VALID 200000/200400 LIIB
LIRR ROMA FIR EMBD TS FCST WI N4331 E01317 - N4254 E01306 - N4126 E01424 - N4112 E01506 - N3944 E01555 - N3900 E01330 - N3923 E01116 - N4219 E00944 - N4331 E01317 ABV FL270 MOV SSE NC=



MET'MAP, your aeronautical weather chart ! - Copyright ORBIFLY December 2007 - Disclaimer

ORBIFLY MET'MAP TEAM :

Programming & Development : Alexandra Zaïnal
Concept & Development : Baudouin d'Aumeries
Co-Development & Prog : Marc-Olivier Méhu
Technical & hardware support : Manuel Goepfert

Contact : metmap@orbifly.com




SOURCES & CREDITS :

   NOAA